createdAt,value
2023-03-07T00:01:56.653Z,70.19
2023-03-07T00:04:23.380Z,70.19
2023-03-07T00:06:50.179Z,70.25
2023-03-07T00:09:17.556Z,70.54
2023-03-07T00:11:44.029Z,70.58
2023-03-07T00:14:10.617Z,71.24
2023-03-07T00:16:37.151Z,70.92
2023-03-07T00:19:03.688Z,71.41
2023-03-07T00:21:32.214Z,71.66
2023-03-07T00:23:58.751Z,72.02
2023-03-07T00:26:26.401Z,72.27
2023-03-07T00:28:53.631Z,72.91
2023-03-07T00:31:20.934Z,73.45
2023-03-07T00:33:47.584Z,73.39
2023-03-07T00:36:18.649Z,73.78
2023-03-07T00:38:45.404Z,73.33
2023-03-07T00:41:13.468Z,73.23
2023-03-07T00:43:40.697Z,73.45
2023-03-07T00:46:07.809Z,72.38
2023-03-07T00:48:35.549Z,72.53
2023-03-07T00:51:02.574Z,72.39
2023-03-07T00:53:29.096Z,72.14
2023-03-07T00:55:57.093Z,71.98
2023-03-07T00:58:24.270Z,71.62
2023-03-07T01:00:51.261Z,71.77
2023-03-07T01:03:19.326Z,71.62
2023-03-07T01:05:47.308Z,71.25
2023-03-07T01:08:14.348Z,71.30
2023-03-07T01:10:40.908Z,70.66
2023-03-07T01:13:07.685Z,70.51
2023-03-07T01:15:34.250Z,70.35
2023-03-07T01:18:00.858Z,70.53
2023-03-07T01:20:27.431Z,70.93
2023-03-07T01:22:54.291Z,70.93
2023-03-07T01:25:21.069Z,70.74
2023-03-07T01:27:47.618Z,70.48
2023-03-07T01:30:14.263Z,69.94
2023-03-07T01:32:40.867Z,69.97
2023-03-07T01:35:07.584Z,69.79
2023-03-07T01:37:34.384Z,69.46
2023-03-07T01:40:01.024Z,69.63
2023-03-07T01:42:30.434Z,70.35
2023-03-07T01:45:00.984Z,70.17
2023-03-07T01:47:36.822Z,70.28
2023-03-07T01:50:06.248Z,70.48
2023-03-07T01:52:37.656Z,70.69
2023-03-07T01:55:18.696Z,70.61
2023-03-07T01:57:49.483Z,71.19
2023-03-07T02:00:22.763Z,71.50
2023-03-07T02:02:51.994Z,72.13
2023-03-07T02:05:28.068Z,72.59
2023-03-07T02:07:56.512Z,72.43
2023-03-07T02:10:26.078Z,72.49
2023-03-07T02:12:53.902Z,72.83
2023-03-07T02:15:20.879Z,73.36
2023-03-07T02:17:47.898Z,73.51
2023-03-07T02:20:14.529Z,72.93
2023-03-07T02:22:41.818Z,73.21
2023-03-07T02:25:14.509Z,73.52
2023-03-07T02:27:41.216Z,73.84
2023-03-07T02:30:08.513Z,73.78
2023-03-07T02:32:35.210Z,72.78
2023-03-07T02:35:01.835Z,73.49
2023-03-07T02:37:33.082Z,73.46
2023-03-07T02:40:01.482Z,73.79
2023-03-07T02:42:31.737Z,73.63
2023-03-07T02:45:10.024Z,74.19
2023-03-07T02:47:38.555Z,73.51
2023-03-07T02:50:06.336Z,74.13
2023-03-07T02:52:33.810Z,73.77
2023-03-07T02:55:00.326Z,73.73
2023-03-07T02:57:31.670Z,73.40
2023-03-07T02:59:59.925Z,73.61
2023-03-07T03:02:26.496Z,73.45
2023-03-07T03:04:53.265Z,73.43
2023-03-07T03:07:22.596Z,73.39
2023-03-07T03:09:49.150Z,73.33
2023-03-07T03:12:15.993Z,73.38
2023-03-07T03:14:42.983Z,73.17
2023-03-07T03:17:10.733Z,73.62
2023-03-07T03:19:37.411Z,73.67
2023-03-07T03:22:04.139Z,74.07
2023-03-07T03:24:37.813Z,73.47
2023-03-07T03:27:05.144Z,73.29
2023-03-07T03:29:31.803Z,73.07
2023-03-07T03:32:01.903Z,72.73
2023-03-07T03:34:29.040Z,72.67
2023-03-07T03:36:55.802Z,72.75
2023-03-07T03:39:22.453Z,73.22
2023-03-07T03:41:53.602Z,73.52
2023-03-07T03:44:22.249Z,73.30
2023-03-07T03:46:48.808Z,73.82
2023-03-07T03:49:19.555Z,74.02
2023-03-07T03:51:49.460Z,74.57
2023-03-07T03:54:16.533Z,74.67
2023-03-07T03:56:43.112Z,75.25
2023-03-07T03:59:09.684Z,75.09
2023-03-07T04:01:36.575Z,75.16
2023-03-07T04:04:04.868Z,74.80
2023-03-07T04:06:32.969Z,75.21
2023-03-07T04:09:00.260Z,75.08
2023-03-07T04:11:27.040Z,75.18
2023-03-07T04:13:53.858Z,74.90
2023-03-07T04:16:24.547Z,74.89
2023-03-07T04:18:52.374Z,74.45
2023-03-07T04:21:19.775Z,74.79
2023-03-07T04:23:49.556Z,75.15
2023-03-07T04:26:16.819Z,75.12
2023-03-07T04:28:44.889Z,75.55
2023-03-07T04:31:33.145Z,75.40
2023-03-07T04:34:02.455Z,75.87
2023-03-07T04:36:29.676Z,76.03
2023-03-07T04:38:56.256Z,76.31
2023-03-07T04:41:26.107Z,76.99
2023-03-07T04:43:57.569Z,77.32
2023-03-07T04:46:25.388Z,77.35
2023-03-07T04:48:52.224Z,77.20
2023-03-07T04:51:19.865Z,77.26
2023-03-07T04:53:48.293Z,77.69
2023-03-07T04:56:16.230Z,77.00
2023-03-07T04:58:44.038Z,77.03
2023-03-07T05:01:10.959Z,77.45
2023-03-07T05:03:37.835Z,76.58
2023-03-07T05:06:07.093Z,76.66
2023-03-07T05:08:34.800Z,76.42
2023-03-07T05:11:01.493Z,76.76
2023-03-07T05:13:28.897Z,76.90
2023-03-07T05:15:56.831Z,76.80
2023-03-07T05:18:24.784Z,77.72
2023-03-07T05:20:52.280Z,77.53
2023-03-07T05:23:19.083Z,77.82
2023-03-07T05:25:47.775Z,78.20
2023-03-07T05:28:14.448Z,78.27
2023-03-07T05:30:40.965Z,78.27
2023-03-07T05:33:07.499Z,77.90
2023-03-07T05:35:34.857Z,78.48
2023-03-07T05:38:02.386Z,78.48
2023-03-07T05:40:30.974Z,78.57
2023-03-07T05:42:57.557Z,78.58
2023-03-07T05:45:24.262Z,78.86
2023-03-07T05:47:51.208Z,78.24
2023-03-07T05:50:19.132Z,78.33
2023-03-07T05:52:45.692Z,78.97
2023-03-07T05:55:12.388Z,78.99
2023-03-07T05:57:38.930Z,78.90
2023-03-07T06:00:06.388Z,78.64
2023-03-07T06:02:40.561Z,77.95
2023-03-07T06:05:08.866Z,78.22
2023-03-07T06:07:35.428Z,78.05
2023-03-07T06:10:01.912Z,77.85
2023-03-07T06:12:28.526Z,77.24
2023-03-07T06:14:55.010Z,77.24
2023-03-07T06:17:21.579Z,77.11
2023-03-07T06:19:48.113Z,76.84
2023-03-07T06:22:14.652Z,76.93
2023-03-07T06:24:41.700Z,76.74
2023-03-07T06:27:09.865Z,76.59
2023-03-07T06:29:36.565Z,76.14
2023-03-07T06:32:04.219Z,76.01
2023-03-07T06:34:31.026Z,76.00
2023-03-07T06:36:58.070Z,75.66
2023-03-07T06:39:24.734Z,75.56
2023-03-07T06:41:53.588Z,75.75
2023-03-07T06:44:20.082Z,75.71
2023-03-07T06:46:47.995Z,75.36
2023-03-07T06:49:18.104Z,74.77
2023-03-07T06:51:46.943Z,73.71
2023-03-07T06:54:13.747Z,72.73
2023-03-07T06:56:40.337Z,71.48
2023-03-07T06:59:07.284Z,71.27
2023-03-07T07:01:35.741Z,69.65
2023-03-07T07:04:02.995Z,71.22
2023-03-07T07:06:29.756Z,71.80
2023-03-07T07:08:56.994Z,71.98
2023-03-07T07:11:26.498Z,72.31
2023-03-07T07:13:53.694Z,73.29
2023-03-07T07:16:21.200Z,73.93
2023-03-07T07:18:50.125Z,73.14
2023-03-07T07:21:16.987Z,72.02
2023-03-07T07:23:43.623Z,72.72
2023-03-07T07:26:10.389Z,72.22
2023-03-07T07:28:36.991Z,71.30
2023-03-07T07:31:05.662Z,72.16
2023-03-07T07:33:33.569Z,71.08
2023-03-07T07:36:00.290Z,70.35
2023-03-07T07:38:26.847Z,71.06
2023-03-07T07:40:53.399Z,70.79
2023-03-07T07:43:20.109Z,69.34
2023-03-07T07:45:54.947Z,68.08
2023-03-07T07:48:21.879Z,67.60
2023-03-07T07:50:48.982Z,67.20
2023-03-07T07:53:17.792Z,66.18
2023-03-07T07:55:45.886Z,67.26
2023-03-07T07:58:12.397Z,67.50
2023-03-07T08:00:39.490Z,65.84
2023-03-07T08:03:06.062Z,65.44
2023-03-07T08:05:32.541Z,65.00
2023-03-07T08:07:59.088Z,64.26
2023-03-07T08:10:25.992Z,64.36
2023-03-07T08:12:52.552Z,63.72
2023-03-07T08:15:21.378Z,62.79
2023-03-07T08:17:48.928Z,61.88
2023-03-07T08:20:15.566Z,61.60
2023-03-07T08:22:43.579Z,60.78
2023-03-07T08:25:15.698Z,59.94
2023-03-07T08:27:42.153Z,58.17
2023-03-07T08:30:09.073Z,58.36
2023-03-07T08:32:35.607Z,57.60
2023-03-07T08:35:02.101Z,57.57
2023-03-07T08:37:28.593Z,56.85
2023-03-07T08:39:55.194Z,55.59
2023-03-07T08:42:21.763Z,56.02
2023-03-07T08:44:48.247Z,54.89
2023-03-07T08:47:14.735Z,52.91
2023-03-07T08:49:41.245Z,53.42
2023-03-07T08:52:07.761Z,52.00
2023-03-07T08:54:34.400Z,52.44
2023-03-07T08:57:00.894Z,52.55
2023-03-07T08:59:27.678Z,54.24
2023-03-07T09:01:55.368Z,55.91
2023-03-07T09:04:21.985Z,55.58
2023-03-07T09:06:48.469Z,56.46
2023-03-07T09:09:14.998Z,56.08
2023-03-07T09:11:41.443Z,56.59
2023-03-07T09:14:08.203Z,56.54
2023-03-07T09:16:34.794Z,55.04
2023-03-07T09:19:01.368Z,53.87
2023-03-07T09:21:27.871Z,53.52
2023-03-07T09:24:19.579Z,54.28
2023-03-07T09:30:53.883Z,52.90
2023-03-07T09:33:20.431Z,51.55
2023-03-07T09:35:46.947Z,49.88
2023-03-07T09:38:13.815Z,49.65
2023-03-07T09:40:40.303Z,48.76
2023-03-07T09:43:23.069Z,47.63
2023-03-07T09:46:25.119Z,47.73
2023-03-07T09:48:51.736Z,47.13
2023-03-07T09:51:25.203Z,47.00
2023-03-07T09:53:55.245Z,47.71
2023-03-07T09:56:27.645Z,47.61
2023-03-07T09:58:59.558Z,47.38
2023-03-07T10:01:28.983Z,48.89
2023-03-07T10:04:06.778Z,48.43
2023-03-07T10:06:33.346Z,49.35
2023-03-07T10:09:00.584Z,49.42
2023-03-07T10:11:29.532Z,50.22
2023-03-07T10:14:11.131Z,50.35
2023-03-07T10:16:43.518Z,51.75
2023-03-07T10:19:14.788Z,51.50
2023-03-07T10:21:50.413Z,50.99
2023-03-07T10:24:24.181Z,49.60
2023-03-07T10:26:56.794Z,50.17
2023-03-07T10:29:24.744Z,49.64
2023-03-07T10:31:55.297Z,49.68
2023-03-07T10:34:27.151Z,48.91
2023-03-07T10:37:09.160Z,49.35
2023-03-07T10:39:41.258Z,48.60
2023-03-07T10:42:11.163Z,49.26
2023-03-07T10:44:38.002Z,45.60
2023-03-07T10:47:04.803Z,45.91
2023-03-07T10:49:37.813Z,45.23
2023-03-07T10:52:06.883Z,45.33
2023-03-07T10:54:37.427Z,45.00
2023-03-07T10:57:04.249Z,44.66
2023-03-07T10:59:33.979Z,43.48
2023-03-07T11:02:01.325Z,45.52
2023-03-07T11:04:28.976Z,47.42
2023-03-07T11:07:01.672Z,49.09
2023-03-07T11:09:29.804Z,50.44
2023-03-07T11:11:57.889Z,50.67
2023-03-07T11:14:25.351Z,50.59
2023-03-07T11:16:57.228Z,49.81
2023-03-07T11:19:34.836Z,49.26
2023-03-07T11:22:03.694Z,49.50
2023-03-07T11:24:37.687Z,50.10
2023-03-07T11:27:04.375Z,50.87
2023-03-07T11:29:33.734Z,50.55
2023-03-07T11:32:05.921Z,51.50
2023-03-07T11:34:50.972Z,53.65
2023-03-07T11:37:26.736Z,53.89
2023-03-07T11:39:56.254Z,53.68
2023-03-07T11:42:31.824Z,53.86
2023-03-07T11:45:09.248Z,54.57
2023-03-07T11:47:35.763Z,53.08
2023-03-07T11:50:20.826Z,53.05
2023-03-07T11:53:05.586Z,52.26
2023-03-07T11:55:43.998Z,51.24
2023-03-07T11:58:19.509Z,51.62
2023-03-07T12:01:11.978Z,51.00
2023-03-07T12:03:41.681Z,51.41
2023-03-07T12:06:08.287Z,51.03
2023-03-07T12:08:44.900Z,52.02
2023-03-07T12:11:17.475Z,52.45
2023-03-07T12:13:54.463Z,53.53
2023-03-07T12:16:27.597Z,53.47
2023-03-07T12:19:04.287Z,54.14
2023-03-07T12:21:30.843Z,53.89
2023-03-07T12:24:00.656Z,53.78
2023-03-07T12:26:32.892Z,55.60
2023-03-07T12:29:13.206Z,55.36
2023-03-07T12:31:46.433Z,56.24
2023-03-07T12:34:22.756Z,55.64
2023-03-07T12:36:55.927Z,54.20
2023-03-07T12:39:38.206Z,55.11
2023-03-07T12:42:16.539Z,55.85
2023-03-07T12:44:45.980Z,56.27
2023-03-07T12:47:16.269Z,55.87
2023-03-07T12:49:50.040Z,55.21
2023-03-07T12:52:40.159Z,54.50
2023-03-07T12:55:25.765Z,55.18
2023-03-07T12:58:04.135Z,55.79
2023-03-07T13:00:31.103Z,55.48
2023-03-07T13:03:01.954Z,55.14
2023-03-07T13:05:29.233Z,55.15
2023-03-07T13:07:56.303Z,55.45
2023-03-07T13:10:24.508Z,55.75
2023-03-07T13:12:52.400Z,55.63
2023-03-07T13:15:18.857Z,56.23
2023-03-07T13:17:45.372Z,56.07
2023-03-07T13:20:14.560Z,56.42
2023-03-07T13:22:41.102Z,56.26
2023-03-07T13:25:20.167Z,56.60
2023-03-07T13:27:54.234Z,57.22
2023-03-07T13:30:21.993Z,57.22
2023-03-07T13:32:50.665Z,57.99
2023-03-07T13:35:32.286Z,57.96
2023-03-07T13:38:05.573Z,57.48
2023-03-07T13:40:35.139Z,57.11
2023-03-07T13:43:02.362Z,57.74
2023-03-07T13:45:37.873Z,58.02
2023-03-07T13:48:24.311Z,57.61
2023-03-07T13:50:50.802Z,56.80
2023-03-07T13:53:22.767Z,56.66
2023-03-07T13:55:54.489Z,55.88
2023-03-07T13:58:28.771Z,55.12
2023-03-07T14:00:58.310Z,55.69
2023-03-07T14:03:33.580Z,56.24
2023-03-07T14:06:02.980Z,56.61
2023-03-07T14:08:32.958Z,56.96
2023-03-07T14:10:59.811Z,57.12
2023-03-07T14:13:32.521Z,57.54
2023-03-07T14:15:58.982Z,57.41
2023-03-07T14:18:40.477Z,58.29
2023-03-07T14:21:18.134Z,58.20
2023-03-07T14:23:51.526Z,58.32
2023-03-07T14:26:24.718Z,58.04
2023-03-07T14:28:58.768Z,58.93
2023-03-07T14:31:30.634Z,58.83
2023-03-07T14:33:57.966Z,59.16
2023-03-07T14:36:25.753Z,59.49
2023-03-07T14:38:55.242Z,59.66
2023-03-07T14:41:36.586Z,59.85
2023-03-07T14:44:15.352Z,60.44
2023-03-07T14:47:04.188Z,60.87
2023-03-07T14:49:30.787Z,61.53
2023-03-07T14:51:57.816Z,62.09
2023-03-07T14:54:29.613Z,62.32
2023-03-07T14:56:57.463Z,63.35
2023-03-07T14:59:29.126Z,63.63
2023-03-07T15:01:56.831Z,64.44
2023-03-07T15:04:23.768Z,64.39
2023-03-07T15:07:13.289Z,64.33
2023-03-07T15:09:39.931Z,64.95
2023-03-07T15:12:19.073Z,65.51
2023-03-07T15:14:48.436Z,65.64
2023-03-07T15:17:18.172Z,66.24
2023-03-07T15:19:48.207Z,66.62
2023-03-07T15:22:27.050Z,66.61
2023-03-07T15:24:53.920Z,67.60
2023-03-07T15:27:31.573Z,68.79
2023-03-07T15:30:03.365Z,68.90
2023-03-07T15:32:32.679Z,69.18
2023-03-07T15:35:12.868Z,70.56
2023-03-07T15:37:55.811Z,70.21
2023-03-07T15:40:35.163Z,71.43
2023-03-07T15:43:04.951Z,71.37
2023-03-07T15:45:35.972Z,71.93
2023-03-07T15:48:09.074Z,72.33
2023-03-07T15:50:35.782Z,73.38
2023-03-07T15:53:19.626Z,73.12
2023-03-07T15:55:54.436Z,73.13
2023-03-07T15:58:22.811Z,73.33
2023-03-07T16:00:49.407Z,73.84
2023-03-07T16:03:29.585Z,74.36
2023-03-07T16:06:00.286Z,74.73
2023-03-07T16:08:27.751Z,75.28
2023-03-07T16:10:57.405Z,75.83
2023-03-07T16:13:27.386Z,75.60
2023-03-07T16:16:01.361Z,76.25
2023-03-07T16:18:29.088Z,76.52
2023-03-07T16:20:55.770Z,77.09
2023-03-07T16:23:25.525Z,76.82
2023-03-07T16:25:52.221Z,76.83
2023-03-07T16:28:18.743Z,77.61
2023-03-07T16:30:45.646Z,77.51
2023-03-07T16:33:13.107Z,77.33
2023-03-07T16:35:39.995Z,78.08
2023-03-07T16:38:07.243Z,78.59
2023-03-07T16:40:33.910Z,78.65
2023-03-07T16:43:01.343Z,78.50
2023-03-07T16:45:29.673Z,78.91
2023-03-07T16:47:57.278Z,79.04
2023-03-07T16:50:25.647Z,79.41
2023-03-07T16:52:53.408Z,80.06
2023-03-07T16:55:20.881Z,79.72
2023-03-07T16:57:49.132Z,79.99
2023-03-07T17:00:16.908Z,80.44
2023-03-07T17:02:44.375Z,80.37
2023-03-07T17:05:17.969Z,80.53
2023-03-07T17:07:44.857Z,80.62
2023-03-07T17:10:11.484Z,80.85
2023-03-07T17:12:38.055Z,81.65
2023-03-07T17:15:04.826Z,81.57
2023-03-07T17:17:35.101Z,81.90
2023-03-07T17:20:01.922Z,82.25
2023-03-07T17:22:28.417Z,82.42
2023-03-07T17:24:55.178Z,82.63
2023-03-07T17:27:21.954Z,83.00
2023-03-07T17:29:51.234Z,83.20
2023-03-07T17:32:18.238Z,83.45
2023-03-07T17:34:44.830Z,83.62
2023-03-07T17:37:12.007Z,83.96
2023-03-07T17:39:38.584Z,84.40
2023-03-07T17:42:05.587Z,84.28
2023-03-07T17:44:32.457Z,84.71
2023-03-07T17:46:59.024Z,84.80
2023-03-07T17:49:28.647Z,85.53
2023-03-07T17:51:55.161Z,86.09
2023-03-07T17:54:21.942Z,86.86
2023-03-07T17:56:48.470Z,87.33
2023-03-07T17:59:15.122Z,87.41
2023-03-07T18:01:42.128Z,88.02
2023-03-07T18:04:08.851Z,88.15
2023-03-07T18:06:36.720Z,88.92
2023-03-07T18:09:05.287Z,89.15
2023-03-07T18:11:31.958Z,89.55
2023-03-07T18:13:58.883Z,90.45
2023-03-07T18:16:25.403Z,90.32
2023-03-07T18:18:59.445Z,90.66
2023-03-07T18:21:29.709Z,90.97
2023-03-07T18:23:57.106Z,91.13
2023-03-07T18:26:23.771Z,91.43
2023-03-07T18:28:50.321Z,91.46
2023-03-07T18:31:18.166Z,91.37
2023-03-07T18:33:45.581Z,91.75
2023-03-07T18:36:13.781Z,91.91
2023-03-07T18:38:40.462Z,92.33
2023-03-07T18:41:11.849Z,92.70
2023-03-07T18:43:38.676Z,93.24
2023-03-07T18:46:06.192Z,93.67
2023-03-07T18:48:32.865Z,94.04
2023-03-07T18:51:00.373Z,94.51
2023-03-07T18:53:27.285Z,94.96
2023-03-07T18:55:53.893Z,94.97
2023-03-07T18:58:20.518Z,95.38
2023-03-07T19:00:47.486Z,95.55
2023-03-07T19:03:14.084Z,96.26
2023-03-07T19:05:47.787Z,96.94
2023-03-07T19:08:14.358Z,97.31
2023-03-07T19:10:40.897Z,97.51
2023-03-07T19:13:07.771Z,97.79
2023-03-07T19:15:34.498Z,97.65
2023-03-07T19:18:01.269Z,98.09
2023-03-07T19:20:27.920Z,98.32
2023-03-07T19:22:54.688Z,98.48
2023-03-07T19:25:21.349Z,99.05
2023-03-07T19:27:47.834Z,99.50
2023-03-07T19:30:15.328Z,99.29
2023-03-07T19:32:41.915Z,99.78
2023-03-07T19:35:08.602Z,99.90
2023-03-07T19:37:35.656Z,99.68
2023-03-07T19:40:02.165Z,99.49
2023-03-07T19:42:28.666Z,99.62
2023-03-07T19:44:55.218Z,99.61
2023-03-07T19:47:21.844Z,99.85
2023-03-07T19:49:48.559Z,99.93
2023-03-07T19:52:16.368Z,100.00
2023-03-07T19:54:42.940Z,100.00
2023-03-07T19:57:11.722Z,100.00
2023-03-07T19:59:38.204Z,100.00
2023-03-07T20:02:04.686Z,100.00
2023-03-07T20:04:31.248Z,100.00
2023-03-07T20:06:57.733Z,100.00
2023-03-07T20:09:24.302Z,100.00
2023-03-07T20:11:50.864Z,99.83
2023-03-07T20:14:17.457Z,99.85
2023-03-07T20:16:43.947Z,100.00
2023-03-07T20:19:10.531Z,99.69
2023-03-07T20:21:37.282Z,100.00
2023-03-07T20:24:04.680Z,99.93
2023-03-07T20:26:35.459Z,100.00
2023-03-07T20:29:03.046Z,100.00
2023-03-07T20:31:30.417Z,100.00
2023-03-07T20:33:57.929Z,100.00
2023-03-07T20:36:25.830Z,100.00
2023-03-07T20:38:56.639Z,100.00
2023-03-07T20:41:24.503Z,100.00
2023-03-07T20:43:51.702Z,99.72
2023-03-07T20:46:19.232Z,99.64
2023-03-07T20:48:46.304Z,99.56
2023-03-07T20:51:18.612Z,99.90
2023-03-07T20:53:46.135Z,100.00
2023-03-07T20:56:12.655Z,100.00
2023-03-07T20:58:39.381Z,100.00
2023-03-07T21:01:06.142Z,100.00
2023-03-07T21:03:32.906Z,100.00
2023-03-07T21:06:00.678Z,100.00
2023-03-07T21:08:28.494Z,100.00
2023-03-07T21:11:02.416Z,100.00
2023-03-07T21:13:29.524Z,100.00
2023-03-07T21:15:57.924Z,100.00
2023-03-07T21:18:24.821Z,100.00
2023-03-07T21:20:51.833Z,100.00
2023-03-07T21:23:18.715Z,100.00
2023-03-07T21:25:45.779Z,100.00
2023-03-07T21:28:12.299Z,100.00
2023-03-07T21:30:38.885Z,100.00
2023-03-07T21:33:05.397Z,100.00
2023-03-07T21:35:35.933Z,100.00
2023-03-07T21:38:02.524Z,100.00
2023-03-07T21:40:28.981Z,100.00
2023-03-07T21:42:55.421Z,100.00
2023-03-07T21:45:23.919Z,100.00
2023-03-07T21:47:54.268Z,100.00
2023-03-07T21:50:20.865Z,100.00
2023-03-07T21:52:47.345Z,100.00
2023-03-07T21:55:13.890Z,100.00
2023-03-07T21:57:40.461Z,100.00
2023-03-07T22:00:08.367Z,100.00
2023-03-07T22:02:37.641Z,100.00
2023-03-07T22:05:04.915Z,100.00
2023-03-07T22:07:32.050Z,100.00
2023-03-07T22:09:58.605Z,100.00
2023-03-07T22:12:25.164Z,100.00
2023-03-07T22:14:51.929Z,100.00
2023-03-07T22:17:18.443Z,100.00
2023-03-07T22:19:44.946Z,100.00
2023-03-07T22:22:11.509Z,100.00
2023-03-07T22:24:38.045Z,100.00
2023-03-07T22:27:04.538Z,100.00
2023-03-07T22:29:31.077Z,100.00
2023-03-07T22:31:57.693Z,100.00
2023-03-07T22:34:24.550Z,100.00
2023-03-07T22:36:51.200Z,100.00
2023-03-07T22:39:17.761Z,100.00
2023-03-07T22:41:44.216Z,100.00
2023-03-07T22:44:11.303Z,100.00
2023-03-07T22:46:37.837Z,100.00
2023-03-07T22:49:04.307Z,100.00
2023-03-07T22:51:30.861Z,100.00
2023-03-07T22:53:57.401Z,100.00
2023-03-07T22:56:25.317Z,100.00
2023-03-07T22:58:51.959Z,100.00
2023-03-07T23:01:23.002Z,100.00
2023-03-07T23:03:50.516Z,100.00
2023-03-07T23:06:17.396Z,100.00
2023-03-07T23:08:45.349Z,100.00
2023-03-07T23:11:12.244Z,100.00
2023-03-07T23:13:38.831Z,100.00
2023-03-07T23:16:12.614Z,100.00
2023-03-07T23:18:40.390Z,100.00
2023-03-07T23:21:08.468Z,100.00
2023-03-07T23:23:35.205Z,100.00
2023-03-07T23:26:02.125Z,100.00
2023-03-07T23:28:28.904Z,100.00
2023-03-07T23:30:55.434Z,100.00
2023-03-07T23:33:22.155Z,100.00
2023-03-07T23:35:48.757Z,100.00
2023-03-07T23:38:15.678Z,100.00
2023-03-07T23:40:42.813Z,100.00
2023-03-07T23:43:13.005Z,100.00
2023-03-07T23:45:39.695Z,100.00
2023-03-07T23:48:06.383Z,100.00
2023-03-07T23:50:33.336Z,100.00
2023-03-07T23:53:00.349Z,100.00
2023-03-07T23:55:27.006Z,100.00
2023-03-07T23:57:53.466Z,100.00
